Time;durP1;ratioP1;P1;durP2;ratioP2;P2;SDS_P1;SDS_P2;PMS_P1;PMS_P2;Temp;Humidity;BMP_temperature;BMP_pressure;BME280_temperature;BME280_humidity;BME280_pressure;Samples;Min_cycle;Max_cycle;Signal;HPM_P1;HPM_P2
2021/05/14 00:02:16;;;;;;;22.58;16.75;;;;;;;15.42;66.60;100841.97;5053382;28;20029;-80
2021/05/14 00:04:42;;;;;;;18.55;15.38;;;;;;;15.39;66.51;100842.97;5053197;28;20432;-81
2021/05/14 00:07:11;;;;;;;25.45;15.95;;;;;;;15.35;66.48;100836.00;5051041;28;20045;-81
2021/05/14 00:09:38;;;;;;;21.10;14.27;;;;;;;15.30;66.48;100846.88;5056231;28;20052;-81
2021/05/14 00:12:05;;;;;;;22.67;17.17;;;;;;;15.24;66.62;100836.44;5052651;28;20119;-88
2021/05/14 00:14:32;;;;;;;23.63;17.45;;;;;;;15.25;66.40;100845.31;5063934;28;20448;-88
2021/05/14 00:16:58;;;;;;;19.88;15.95;;;;;;;15.25;66.64;100839.97;5056291;28;20077;-86
2021/05/14 00:19:26;;;;;;;23.23;17.40;;;;;;;15.24;66.62;100841.78;5054700;28;20078;-89
2021/05/14 00:21:53;;;;;;;24.52;16.88;;;;;;;15.23;66.45;100839.16;5056355;28;20140;-90
2021/05/14 00:24:44;;;;;;;19.13;14.50;;;;;;;15.26;66.43;100836.38;5032463;28;20057;-89
2021/05/14 00:27:13;;;;;;;21.02;16.05;;;;;;;15.20;66.47;100838.34;5049775;28;20076;-86
2021/05/14 00:29:40;;;;;;;20.10;15.15;;;;;;;15.22;66.42;100834.75;5057298;28;20479;-85
2021/05/14 00:32:08;;;;;;;18.42;14.48;;;;;;;15.25;66.38;100834.63;5056611;28;20437;-81
2021/05/14 00:34:37;;;;;;;19.52;15.57;;;;;;;15.19;66.54;100836.59;5052066;28;20041;-86
2021/05/14 00:37:07;;;;;;;19.80;16.23;;;;;;;15.25;66.51;100831.97;5064246;28;20073;-86
2021/05/14 00:39:33;;;;;;;21.38;16.40;;;;;;;15.16;66.53;100830.53;5061807;28;20528;-88
2021/05/14 00:42:00;;;;;;;23.80;16.27;;;;;;;15.12;66.68;100832.44;5061483;28;20037;-84
2021/05/14 00:47:08;;;;;;;19.23;15.75;;;;;;;15.14;66.54;100832.38;4645871;27;12766730;-89
2021/05/14 00:49:35;;;;;;;22.38;18.08;;;;;;;15.12;66.46;100828.91;5041542;28;20115;-81
2021/05/14 00:52:03;;;;;;;19.55;15.20;;;;;;;15.09;66.55;100827.22;5051799;28;20022;-80
2021/05/14 00:54:30;;;;;;;20.30;15.50;;;;;;;15.08;66.56;100828.16;5038901;28;20044;-79
2021/05/14 00:56:58;;;;;;;21.05;14.27;;;;;;;15.09;66.38;100829.00;5068585;28;20071;-79
2021/05/14 00:59:30;;;;;;;25.30;17.27;;;;;;;15.06;66.42;100830.00;5055260;28;20033;-84
2021/05/14 01:01:57;;;;;;;21.35;16.20;;;;;;;15.01;66.47;100829.31;5056747;28;20053;-86
2021/05/14 01:04:25;;;;;;;21.52;16.08;;;;;;;14.97;66.41;100823.22;5065775;28;20029;-84
2021/05/14 01:06:52;;;;;;;23.33;17.05;;;;;;;14.95;66.49;100824.22;5041598;28;20033;-88
2021/05/14 01:09:29;;;;;;;22.65;16.75;;;;;;;14.95;66.46;100826.88;5054820;28;20029;-88
2021/05/14 01:12:04;;;;;;;20.85;15.32;;;;;;;14.87;66.39;100825.38;5057220;28;20036;-83
2021/05/14 01:14:31;;;;;;;25.63;17.83;;;;;;;14.84;66.59;100820.19;5055877;28;20492;-79
2021/05/14 01:16:59;;;;;;;24.63;18.02;;;;;;;14.84;66.43;100825.50;5049306;28;20080;-80
2021/05/14 01:19:25;;;;;;;21.77;16.40;;;;;;;14.80;66.77;100829.19;5055841;28;20037;-80
2021/05/14 01:21:51;;;;;;;24.08;17.02;;;;;;;14.78;66.43;100824.84;5049293;28;20380;-79
2021/05/14 01:24:20;;;;;;;23.15;16.73;;;;;;;14.76;66.51;100822.25;5039665;28;20451;-79
2021/05/14 01:26:48;;;;;;;24.48;16.00;;;;;;;14.76;66.79;100832.91;5044459;28;20040;-80
2021/05/14 01:29:14;;;;;;;28.00;17.95;;;;;;;14.72;66.81;100833.97;5050449;28;20488;-79
2021/05/14 01:31:42;;;;;;;24.88;17.63;;;;;;;14.71;66.72;100825.09;5055696;28;20029;-81
2021/05/14 01:34:09;;;;;;;26.33;17.35;;;;;;;14.69;66.68;100829.63;5055117;28;20029;-80
2021/05/14 01:36:39;;;;;;;21.55;16.58;;;;;;;14.73;66.74;100833.06;5061427;28;20472;-80
2021/05/14 01:39:09;;;;;;;17.48;14.10;;;;;;;14.71;66.90;100824.22;5064896;28;20044;-79
2021/05/14 01:41:41;;;;;;;23.75;17.27;;;;;;;14.72;66.39;100829.50;5038249;28;20389;-80
2021/05/14 01:44:09;;;;;;;26.02;17.95;;;;;;;14.69;66.58;100831.41;5058985;28;20136;-85
2021/05/14 01:46:36;;;;;;;25.17;19.38;;;;;;;14.71;66.63;100840.22;5050649;28;20423;-81
2021/05/14 01:49:04;;;;;;;23.92;17.60;;;;;;;14.70;66.85;100833.16;5055681;28;20036;-81
2021/05/14 01:51:32;;;;;;;24.73;17.23;;;;;;;14.71;66.44;100840.22;5032377;28;20037;-81
2021/05/14 01:54:01;;;;;;;23.45;18.17;;;;;;;14.68;66.77;100835.88;5060443;28;20083;-79
2021/05/14 01:56:32;;;;;;;24.55;16.50;;;;;;;14.70;66.73;100835.81;5051661;28;20018;-85
2021/05/14 01:59:00;;;;;;;27.40;16.80;;;;;;;14.72;66.63;100832.16;5047943;28;20025;-80
2021/05/14 02:01:27;;;;;;;20.23;14.85;;;;;;;14.71;66.55;100824.22;5032680;28;20056;-84
2021/05/14 02:03:54;;;;;;;29.55;18.63;;;;;;;14.66;66.36;100828.88;5038561;28;20030;-83
2021/05/14 02:06:21;;;;;;;26.00;17.15;;;;;;;14.69;66.19;100826.97;5018110;28;20048;-80
2021/05/14 02:08:47;;;;;;;21.13;15.00;;;;;;;14.66;66.32;100827.06;5040248;28;20026;-85
2021/05/14 02:11:14;;;;;;;19.30;14.10;;;;;;;14.61;66.19;100825.47;5047624;28;20044;-79
2021/05/14 02:13:41;;;;;;;21.58;14.68;;;;;;;14.65;66.20;100824.47;5050764;28;20029;-79
2021/05/14 02:16:09;;;;;;;22.08;16.77;;;;;;;14.65;66.01;100819.13;5049964;28;20104;-89
2021/05/14 02:18:37;;;;;;;21.83;14.60;;;;;;;14.62;66.11;100819.22;5038863;28;20026;-83
2021/05/14 02:21:06;;;;;;;19.10;15.43;;;;;;;14.63;66.04;100820.94;5040715;28;20040;-86
2021/05/14 02:23:33;;;;;;;25.08;15.88;;;;;;;14.59;66.05;100819.31;5048690;28;20106;-82
2021/05/14 02:26:02;;;;;;;25.35;15.75;;;;;;;14.61;66.11;100821.00;5047942;28;20477;-89
2021/05/14 02:28:29;;;;;;;22.48;15.70;;;;;;;14.61;66.06;100822.81;5035253;28;20025;-89
2021/05/14 02:30:56;;;;;;;19.23;14.63;;;;;;;14.60;66.06;100824.59;5039051;28;20025;-86
2021/05/14 02:33:23;;;;;;;20.27;15.02;;;;;;;14.57;66.01;100822.06;5043402;28;20039;-86
2021/05/14 02:35:50;;;;;;;20.73;15.10;;;;;;;14.56;66.07;100817.63;5050993;28;20025;-86
2021/05/14 02:38:16;;;;;;;27.90;17.42;;;;;;;14.55;66.22;100818.56;5048820;28;20021;-85
2021/05/14 02:40:46;;;;;;;25.70;16.75;;;;;;;14.54;66.03;100815.03;5034370;28;20040;-86
2021/05/14 02:43:13;;;;;;;26.08;17.10;;;;;;;14.52;65.96;100818.69;5036115;28;20053;-87
2021/05/14 02:45:41;;;;;;;23.27;16.15;;;;;;;14.50;66.23;100825.88;5038090;28;20033;-89
2021/05/14 02:48:09;;;;;;;27.20;17.35;;;;;;;14.49;66.05;100819.69;5018688;28;20412;-86
2021/05/14 02:50:36;;;;;;;23.27;16.48;;;;;;;14.48;66.05;100817.94;5046865;28;20036;-85
2021/05/14 02:53:04;;;;;;;24.02;16.30;;;;;;;14.49;66.09;100822.34;5030227;28;20046;-85
2021/05/14 02:55:37;;;;;;;21.25;16.50;;;;;;;14.54;66.21;100815.03;5045979;28;20372;-84
2021/05/14 02:58:03;;;;;;;;;;;;;;;14.66;65.54;100816.41;5044985;28;20037;-81
2021/05/14 03:00:30;;;;;;;21.05;15.98;;;;;;;14.51;66.14;100823.13;5050241;28;19913;-89
2021/05/14 03:03:02;;;;;;;20.48;16.73;;;;;;;14.48;66.02;100812.59;5016403;28;20053;-85
2021/05/14 03:05:28;;;;;;;;;;;;;;;14.69;65.76;100820.75;5034670;28;20036;-86
2021/05/14 03:07:55;;;;;;;18.63;14.45;;;;;;;14.52;66.05;100819.53;5038792;28;19975;-84
2021/05/14 03:10:24;;;;;;;19.65;13.32;;;;;;;14.49;66.09;100813.47;5022913;28;20057;-88
2021/05/14 03:12:53;;;;;;;21.67;15.50;;;;;;;14.46;66.12;100825.09;5030673;28;20054;-85
2021/05/14 03:15:21;;;;;;;20.15;15.70;;;;;;;14.47;66.25;100820.66;5052357;28;20102;-87
2021/05/14 03:17:48;;;;;;;22.52;17.25;;;;;;;14.48;66.08;100827.69;5038556;28;20112;-86
2021/05/14 03:20:23;;;;;;;23.70;17.27;;;;;;;14.51;65.81;100828.47;5020933;28;20029;-79
2021/05/14 03:22:58;;;;;;;22.55;16.48;;;;;;;14.50;66.08;100821.38;5034710;28;20060;-79
2021/05/14 03:25:45;;;;;;;23.20;16.35;;;;;;;14.52;65.53;100824.88;5045077;28;20044;-87
2021/05/14 03:28:11;;;;;;;19.00;14.77;;;;;;;14.42;65.68;100820.81;5021757;28;20060;-84
2021/05/14 03:30:38;;;;;;;22.05;15.43;;;;;;;14.40;65.90;100820.00;5033067;28;20558;-87
2021/05/14 03:33:04;;;;;;;24.52;18.10;;;;;;;14.43;66.07;100819.00;5044541;28;20025;-88
2021/05/14 03:35:30;;;;;;;22.63;15.82;;;;;;;14.42;66.17;100817.25;5049887;28;20025;-82
2021/05/14 03:37:57;;;;;;;19.33;13.43;;;;;;;14.43;66.09;100824.34;5017641;28;20030;-82
2021/05/14 03:43:15;;;;;;;18.02;14.45;;;;;;;14.68;65.13;100819.03;5072373;27;20188;-81
2021/05/14 03:45:41;;;;;;;20.75;14.98;;;;;;;14.72;65.08;100809.97;5068857;28;20040;-81
2021/05/14 03:48:23;;;;;;;21.63;16.77;;;;;;;14.73;64.76;100817.06;5065288;28;20025;-82
2021/05/14 03:50:53;;;;;;;32.00;18.42;;;;;;;14.76;64.73;100811.59;5060050;28;20043;-82
2021/05/14 03:53:21;;;;;;;24.73;16.65;;;;;;;14.46;65.68;100811.78;5064076;28;20384;-79
2021/05/14 03:55:48;;;;;;;21.08;15.75;;;;;;;14.40;66.17;100810.22;5059184;28;20104;-80
2021/05/14 03:58:14;;;;;;;22.48;17.30;;;;;;;14.35;66.24;100804.16;5057344;28;20483;-80
2021/05/14 04:00:41;;;;;;;20.90;16.23;;;;;;;14.37;66.19;100806.78;5047032;28;20045;-79
2021/05/14 04:03:08;;;;;;;23.05;16.88;;;;;;;14.33;66.09;100802.47;5036855;28;20026;-85
2021/05/14 04:05:38;;;;;;;20.67;14.85;;;;;;;14.31;65.94;100807.00;5058995;28;20388;-79
2021/05/14 04:08:10;;;;;;;19.65;15.48;;;;;;;14.30;66.17;100813.25;5042329;28;20124;-78
2021/05/14 04:16:12;;;;;;;24.20;14.85;;;;;;;14.59;64.72;100820.19;5070984;28;20041;-81
2021/05/14 04:18:39;;;;;;;21.40;15.48;;;;;;;14.41;65.06;100821.75;5071839;28;20033;-79
2021/05/14 04:21:07;;;;;;;21.90;16.48;;;;;;;14.27;65.62;100819.56;5059681;28;20045;-84
2021/05/14 04:23:35;;;;;;;21.17;14.45;;;;;;;14.22;65.91;100817.06;5055964;28;20469;-86
2021/05/14 04:26:03;;;;;;;25.92;15.88;;;;;;;14.21;65.64;100818.00;5054135;28;20106;-79
2021/05/14 04:28:29;;;;;;;20.17;15.10;;;;;;;14.19;66.34;100822.53;5054734;28;20031;-80
2021/05/14 04:30:55;;;;;;;20.70;15.85;;;;;;;14.22;66.23;100829.53;5059694;28;20037;-79
2021/05/14 04:33:24;;;;;;;21.77;16.25;;;;;;;14.24;66.20;100825.88;5057121;28;20108;-81
2021/05/14 04:35:50;;;;;;;21.10;15.75;;;;;;;14.29;65.70;100824.84;5056076;28;20461;-79
2021/05/14 04:38:17;;;;;;;20.88;15.48;;;;;;;14.23;65.54;100826.81;5049016;28;20069;-80
2021/05/14 04:40:43;;;;;;;23.00;16.40;;;;;;;14.23;65.91;100829.47;5058163;28;20375;-82
2021/05/14 04:43:09;;;;;;;23.10;16.98;;;;;;;14.26;66.01;100833.81;5061320;28;20037;-80
2021/05/14 04:45:36;;;;;;;26.20;17.65;;;;;;;14.29;65.82;100827.50;5054282;28;20125;-83
2021/05/14 04:48:05;;;;;;;24.52;16.13;;;;;;;14.31;65.82;100831.00;5053550;28;20064;-82
2021/05/14 04:50:32;;;;;;;19.92;14.85;;;;;;;14.34;65.99;100830.88;5056620;28;20029;-85
2021/05/14 04:53:04;;;;;;;20.48;15.68;;;;;;;14.38;65.50;100829.84;5065853;28;20082;-79
2021/05/14 04:55:31;;;;;;;23.98;16.90;;;;;;;14.61;64.87;100834.34;5050771;28;20025;-82
2021/05/14 04:57:57;;;;;;;20.70;16.77;;;;;;;14.69;64.80;100834.06;5044897;28;20120;-86
2021/05/14 05:00:25;;;;;;;22.45;16.45;;;;;;;14.74;64.51;100833.91;5047505;28;20038;-87
2021/05/14 05:02:52;;;;;;;21.35;17.00;;;;;;;14.76;64.51;100838.25;5041714;28;20396;-84
2021/05/14 05:05:19;;;;;;;22.50;15.73;;;;;;;14.81;64.49;100835.44;5042917;28;20034;-87
2021/05/14 05:07:47;;;;;;;27.40;18.55;;;;;;;14.83;64.31;100841.59;5057503;28;20059;-86
2021/05/14 05:10:15;;;;;;;24.35;17.77;;;;;;;14.84;64.43;100833.50;5061831;28;20071;-87
2021/05/14 05:12:45;;;;;;;22.00;16.65;;;;;;;14.95;64.49;100837.56;5054365;28;20473;-86
2021/05/14 05:15:14;;;;;;;20.13;15.40;;;;;;;14.93;64.60;100839.41;5050008;28;20040;-79
2021/05/14 05:17:41;;;;;;;24.52;19.00;;;;;;;14.97;64.18;100841.06;5056464;28;20017;-84
2021/05/14 05:20:13;;;;;;;22.50;17.58;;;;;;;14.98;64.32;100848.13;5056613;28;20036;-82
2021/05/14 05:22:39;;;;;;;22.25;16.90;;;;;;;15.00;64.27;100843.59;5036675;28;20177;-87
2021/05/14 05:25:06;;;;;;;24.52;15.98;;;;;;;15.02;64.23;100845.25;5030098;28;20092;-90
2021/05/14 05:27:33;;;;;;;19.58;16.33;;;;;;;15.01;64.34;100842.66;5020141;28;20022;-88
2021/05/14 05:30:06;;;;;;;22.17;16.02;;;;;;;15.08;64.20;100845.94;5027584;28;20044;-84
2021/05/14 05:32:32;;;;;;;20.00;15.60;;;;;;;14.98;64.36;100853.47;5022481;28;20048;-89
2021/05/14 05:34:59;;;;;;;20.27;15.77;;;;;;;14.97;64.48;100847.25;5019704;28;20037;-83
2021/05/14 05:37:25;;;;;;;23.02;18.17;;;;;;;15.04;64.16;100847.88;5018967;28;20022;-90
2021/05/14 05:39:51;;;;;;;19.70;15.40;;;;;;;15.08;64.35;100848.63;5028021;28;20037;-92
2021/05/14 05:42:19;;;;;;;27.90;17.60;;;;;;;15.16;64.40;100850.06;5027296;28;20061;-83
2021/05/14 05:44:46;;;;;;;20.85;16.83;;;;;;;15.22;64.38;100853.44;5034579;28;20029;-88
2021/05/14 05:47:12;;;;;;;19.60;15.77;;;;;;;15.29;64.32;100852.25;5034633;28;20038;-84
2021/05/14 05:49:38;;;;;;;23.40;16.83;;;;;;;15.38;64.29;100862.56;5038914;28;20025;-88
2021/05/14 05:52:06;;;;;;;19.60;16.02;;;;;;;15.41;64.17;100857.09;5023908;28;20080;-94
2021/05/14 05:54:32;;;;;;;23.90;17.73;;;;;;;15.41;63.99;100861.59;5030220;28;20038;-94
2021/05/14 05:57:00;;;;;;;19.80;16.08;;;;;;;15.45;63.94;100871.19;5044742;28;20034;-96
2021/05/14 05:59:27;;;;;;;19.23;15.95;;;;;;;15.46;63.75;100863.13;5030058;28;20033;-86
2021/05/14 06:01:54;;;;;;;19.83;15.43;;;;;;;15.48;63.95;100868.44;5033742;28;20037;-89
2021/05/14 06:04:25;;;;;;;25.38;17.40;;;;;;;15.52;63.64;100860.19;5038152;28;20041;-92
2021/05/14 06:06:51;;;;;;;19.98;15.30;;;;;;;15.50;63.51;100867.44;5042043;28;20046;-89
2021/05/14 06:09:17;;;;;;;23.00;18.17;;;;;;;15.57;63.47;100867.19;5042781;28;20029;-91
2021/05/14 06:11:44;;;;;;;26.83;19.23;;;;;;;15.57;63.55;100869.84;5041150;28;20136;-91
2021/05/14 06:14:10;;;;;;;28.27;19.48;;;;;;;15.63;63.36;100873.13;5024468;28;20041;-82
2021/05/14 06:16:37;;;;;;;23.30;18.52;;;;;;;15.66;63.35;100877.47;5035153;28;20063;-89
2021/05/14 06:22:03;;;;;;;29.27;18.83;;;;;;;15.81;62.76;100875.97;5063456;28;20370;-88
2021/05/14 06:24:29;;;;;;;26.73;19.17;;;;;;;15.73;63.05;100883.47;5048928;28;20091;-86
2021/05/14 06:26:55;;;;;;;29.02;18.35;;;;;;;15.51;64.01;100885.19;5046430;28;20550;-89
2021/05/14 06:29:25;;;;;;;25.77;19.92;;;;;;;15.52;63.99;100891.41;5046919;28;20472;-88
2021/05/14 06:31:51;;;;;;;21.88;18.00;;;;;;;15.49;64.10;100886.19;5048464;28;20023;-89
2021/05/14 06:34:17;;;;;;;27.17;20.80;;;;;;;15.55;63.96;100893.06;5039988;28;20049;-85
2021/05/14 06:36:43;;;;;;;30.95;20.95;;;;;;;15.59;63.73;100894.69;5039142;28;20507;-87
2021/05/14 06:39:10;;;;;;;24.98;19.00;;;;;;;15.59;63.78;100895.56;5045700;28;20029;-88
2021/05/14 06:41:36;;;;;;;28.83;20.83;;;;;;;15.60;63.72;100896.41;5043419;28;20029;-87
2021/05/14 06:44:04;;;;;;;31.05;22.02;;;;;;;15.66;63.78;100899.72;5049293;28;20527;-89
2021/05/14 06:46:31;;;;;;;26.25;20.05;;;;;;;15.66;63.69;100893.50;5045019;28;20029;-90
2021/05/14 06:48:59;;;;;;;29.98;21.75;;;;;;;15.71;63.61;100896.84;5048586;28;20500;-83
2021/05/14 06:51:25;;;;;;;36.40;22.00;;;;;;;15.66;63.64;100898.84;5043544;28;20104;-80
2021/05/14 06:53:51;;;;;;;27.98;21.95;;;;;;;15.67;63.58;100895.25;5047383;28;20048;-80
2021/05/14 06:56:17;;;;;;;25.67;19.70;;;;;;;15.71;63.65;100893.31;5044186;28;20121;-79
2021/05/14 06:58:44;;;;;;;32.88;21.25;;;;;;;15.74;63.70;100886.06;5044075;28;20385;-79
2021/05/14 07:01:10;;;;;;;29.40;22.08;;;;;;;15.83;63.59;100887.50;5040860;28;20033;-81
2021/05/14 07:03:37;;;;;;;32.33;21.83;;;;;;;15.91;63.41;100893.38;5029993;28;20120;-81
2021/05/14 07:06:05;;;;;;;34.80;21.80;;;;;;;16.00;63.29;100897.50;5030135;28;20160;-89
2021/05/14 07:08:34;;;;;;;34.10;22.23;;;;;;;16.00;63.26;100897.50;5048937;28;20030;-91
2021/05/14 07:11:00;;;;;;;32.58;21.38;;;;;;;16.04;62.96;100908.91;5047265;28;20048;-79
2021/05/14 07:13:26;;;;;;;35.40;23.95;;;;;;;16.12;62.97;100904.97;5048423;28;20024;-81
2021/05/14 07:15:53;;;;;;;33.60;23.52;;;;;;;16.15;63.24;100907.53;5048197;28;20520;-79
2021/05/14 07:18:26;;;;;;;32.08;22.15;;;;;;;16.38;62.78;100904.81;5047342;28;20021;-84
2021/05/14 07:20:53;;;;;;;33.47;21.45;;;;;;;16.41;62.30;100913.59;5044730;28;20041;-79
2021/05/14 07:23:19;;;;;;;29.63;20.88;;;;;;;16.50;61.83;100907.81;5047695;28;20022;-85
2021/05/14 07:25:45;;;;;;;29.38;21.55;;;;;;;16.57;61.83;100905.72;5046797;28;20395;-80
2021/05/14 07:28:12;;;;;;;35.53;22.80;;;;;;;16.61;61.33;100903.78;5041883;28;20104;-91
2021/05/14 07:30:38;;;;;;;30.58;22.75;;;;;;;16.69;61.18;100909.69;5048398;28;20021;-82
2021/05/14 07:33:06;;;;;;;29.17;22.00;;;;;;;16.75;61.09;100905.88;5035771;28;20021;-81
2021/05/14 07:35:32;;;;;;;30.67;21.33;;;;;;;16.78;60.65;100903.91;5029429;28;20025;-77
2021/05/14 07:37:58;;;;;;;30.25;21.33;;;;;;;16.85;60.24;100909.88;5033923;28;20038;-78
2021/05/14 07:40:25;;;;;;;27.35;20.77;;;;;;;16.95;60.32;100913.03;5024770;28;20060;-79
2021/05/14 07:42:55;;;;;;;28.75;20.52;;;;;;;17.00;59.76;100916.38;5028478;28;20033;-79
2021/05/14 07:45:22;;;;;;;25.67;19.23;;;;;;;17.04;59.47;100917.09;5023546;28;20034;-79
2021/05/14 07:47:49;;;;;;;27.25;18.38;;;;;;;17.08;59.24;100914.19;5021945;28;20038;-79
2021/05/14 07:50:18;;;;;;;25.83;19.17;;;;;;;17.15;58.33;100925.50;5029377;28;20052;-92
2021/05/14 07:52:45;;;;;;;35.70;27.42;;;;;;;17.10;58.31;100920.34;5033807;28;20033;-84
2021/05/14 07:55:19;;;;;;;29.48;21.40;;;;;;;17.15;58.05;100914.78;5034910;28;20085;-79
2021/05/14 07:57:54;;;;;;;27.13;20.23;;;;;;;17.20;58.49;100917.25;5028809;28;20424;-81
2021/05/14 08:00:20;;;;;;;28.52;22.05;;;;;;;17.10;58.77;100923.03;5032907;28;20038;-85
2021/05/14 08:02:48;;;;;;;28.70;18.88;;;;;;;17.03;58.47;100921.56;5028772;28;20044;-94
2021/05/14 08:05:14;;;;;;;27.13;20.05;;;;;;;17.00;58.72;100920.84;5028486;28;20061;-91
2021/05/14 08:07:40;;;;;;;25.63;18.02;;;;;;;17.02;58.79;100919.81;5034072;28;20042;-92
2021/05/14 08:10:07;;;;;;;23.88;16.60;;;;;;;17.10;58.66;100922.16;5034221;28;20028;-93
2021/05/14 08:12:34;;;;;;;22.67;17.13;;;;;;;17.19;58.71;100927.09;5033304;28;20096;-94
2021/05/14 08:15:02;;;;;;;23.77;15.75;;;;;;;17.19;58.22;100927.09;5033714;28;20029;-89
2021/05/14 08:17:28;;;;;;;23.23;16.88;;;;;;;17.24;57.89;100926.88;5033660;28;20029;-96
2021/05/14 08:19:55;;;;;;;23.15;17.63;;;;;;;17.27;57.54;100929.41;5031206;28;20037;-95
2021/05/14 08:22:28;;;;;;;22.65;16.45;;;;;;;17.38;57.76;100927.06;5028554;28;20032;-91
2021/05/14 08:24:54;;;;;;;22.25;15.65;;;;;;;17.41;57.71;100926.94;5030070;28;20033;-95
2021/05/14 08:27:21;;;;;;;21.35;16.02;;;;;;;17.42;57.62;100931.38;5033417;28;20477;-95
2021/05/14 08:29:47;;;;;;;27.42;18.20;;;;;;;17.53;57.57;100938.88;5028799;28;20391;-87
2021/05/14 08:32:36;;;;;;;23.25;16.58;;;;;;;17.69;56.58;100936.34;5026139;28;20033;-96
2021/05/14 08:35:04;;;;;;;25.27;17.20;;;;;;;17.62;56.84;100945.63;5034915;28;20060;-96
2021/05/14 08:37:46;;;;;;;22.23;16.45;;;;;;;17.63;56.46;100941.97;5035169;28;20053;-96
2021/05/14 08:40:13;;;;;;;24.35;17.23;;;;;;;17.74;56.26;100945.00;5037746;28;20041;-94
2021/05/14 08:42:41;;;;;;;22.17;17.00;;;;;;;17.78;56.06;100935.91;5036153;28;20030;-90
2021/05/14 08:45:12;;;;;;;27.83;16.98;;;;;;;17.86;55.46;100937.34;5031986;28;20033;-88
2021/05/14 08:47:40;;;;;;;20.30;15.13;;;;;;;17.86;55.68;100937.34;5031217;28;20032;-91
2021/05/14 08:50:08;;;;;;;22.25;16.95;;;;;;;17.92;55.31;100937.91;5030037;28;20109;-88
2021/05/14 08:52:38;;;;;;;22.05;16.95;;;;;;;17.98;54.87;100941.25;5030219;28;20460;-91
2021/05/14 08:55:07;;;;;;;21.52;15.50;;;;;;;18.08;54.70;100929.13;5028297;28;20454;-96
2021/05/14 08:57:35;;;;;;;20.08;15.15;;;;;;;18.14;54.67;100930.63;5025521;28;20406;-93
2021/05/14 09:00:04;;;;;;;20.58;15.18;;;;;;;18.20;54.46;100931.19;5032819;28;20380;-93
2021/05/14 09:02:33;;;;;;;20.27;15.52;;;;;;;18.32;53.83;100926.13;5036240;28;20501;-89
2021/05/14 09:05:22;;;;;;;22.88;17.00;;;;;;;18.42;52.52;100930.94;5039686;28;20021;-96
2021/05/14 09:07:49;;;;;;;22.42;16.00;;;;;;;18.38;53.32;100929.38;5034618;28;20397;-91
2021/05/14 09:10:16;;;;;;;26.48;15.30;;;;;;;18.46;53.67;100930.81;5033350;28;20041;-86
2021/05/14 09:12:44;;;;;;;21.30;15.73;;;;;;;18.51;53.30;100928.75;5032600;28;20065;-83
2021/05/14 09:15:34;;;;;;;23.10;15.75;;;;;;;18.71;52.10;100925.88;5023024;28;20068;-92
2021/05/14 09:26:34;;;;;;;21.15;15.15;;;;;;;18.93;52.60;100935.53;5127482;27;20389;-91
2021/05/14 09:29:00;;;;;;;20.63;14.32;;;;;;;19.01;51.78;100941.31;5125134;28;20031;-95
2021/05/14 09:31:28;;;;;;;20.70;14.57;;;;;;;19.08;52.08;100942.72;5120301;28;20020;-96
2021/05/14 09:33:58;;;;;;;17.65;13.45;;;;;;;19.17;51.59;100938.69;5129492;27;20033;-92
2021/05/14 09:36:31;;;;;;;17.23;13.00;;;;;;;19.27;51.97;100952.47;5119024;27;20024;-96
2021/05/14 09:39:01;;;;;;;21.30;14.20;;;;;;;19.25;51.72;100949.00;5127306;28;20573;-93
2021/05/14 09:44:23;;;;;;;18.23;13.88;;;;;;;19.30;52.28;100952.31;5033903;28;20408;-94
2021/05/14 09:46:55;;;;;;;20.33;13.68;;;;;;;19.31;52.23;100945.97;5030545;28;20113;-92
2021/05/14 09:49:23;;;;;;;18.35;12.65;;;;;;;19.29;51.80;100945.22;5029991;28;20033;-84
2021/05/14 09:51:54;;;;;;;16.85;11.60;;;;;;;19.36;51.83;100943.91;5024915;28;20025;-90
2021/05/14 09:54:24;;;;;;;14.60;11.05;;;;;;;19.44;51.77;100937.22;5028164;28;20037;-78
2021/05/14 10:00:07;;;;;;;17.30;11.93;;;;;;;19.65;51.65;100940.53;4227184;27;25661547;-79
2021/05/14 10:02:37;;;;;;;17.13;12.80;;;;;;;19.63;51.54;100935.25;5130164;27;20062;-87
2021/05/14 10:05:07;;;;;;;18.40;12.50;;;;;;;19.69;51.33;100940.28;5128365;27;20043;-89
2021/05/14 10:07:42;;;;;;;16.85;12.43;;;;;;;19.73;51.22;100933.78;5129000;27;20024;-89
2021/05/14 10:10:11;;;;;;;17.17;12.50;;;;;;;19.82;50.79;100944.97;5123507;27;20181;-87
2021/05/14 10:12:38;;;;;;;15.80;12.90;;;;;;;19.81;50.44;100945.91;5117388;27;20385;-88
2021/05/14 10:15:09;;;;;;;17.45;12.88;;;;;;;19.84;50.01;100943.09;5120295;27;20123;-90
2021/05/14 10:17:40;;;;;;;16.75;12.57;;;;;;;19.87;50.13;100942.91;5123236;27;20531;-88
2021/05/14 10:20:14;;;;;;;16.35;12.50;;;;;;;20.01;49.19;100932.22;5123519;27;20111;-90
2021/05/14 10:22:44;;;;;;;20.15;12.88;;;;;;;20.11;49.96;100932.56;5122849;27;20022;-90
2021/05/14 10:25:14;;;;;;;14.25;11.52;;;;;;;20.17;49.32;100925.94;5127892;27;20022;-91
2021/05/14 10:27:45;;;;;;;15.32;11.52;;;;;;;20.16;49.58;100932.25;5126334;28;20038;-87
2021/05/14 10:30:13;;;;;;;18.60;13.23;;;;;;;20.19;49.49;100927.56;5128401;27;20019;-84
2021/05/14 10:35:33;;;;;;;15.50;11.55;;;;;;;20.20;48.89;100928.47;5049601;28;20410;-85
2021/05/14 10:40:56;;;;;;;19.42;12.80;;;;;;;20.25;48.72;100931.72;5100703;27;20894;-89
2021/05/14 10:44:02;;;;;;;14.90;12.02;;;;;;;20.32;46.82;100929.53;5109868;28;20024;-86
2021/05/14 10:46:29;;;;;;;12.88;10.80;;;;;;;20.19;47.79;100926.72;5104388;28;20039;-85
2021/05/14 10:49:04;;;;;;;17.17;11.45;;;;;;;20.33;47.59;100913.28;5110818;28;20074;-86
2021/05/14 10:54:51;;;;;;;14.95;11.55;;;;;;;20.66;47.67;100919.41;5082921;27;20413;-89
2021/05/14 11:00:39;;;;;;;14.25;11.10;;;;;;;20.87;46.99;100911.00;5138335;27;20423;-91
2021/05/14 11:06:20;;;;;;;14.60;10.65;;;;;;;21.04;45.41;100918.03;4317292;27;23937512;-96
2021/05/14 11:09:13;;;;;;;19.35;13.25;;;;;;;21.11;46.17;100917.56;5141344;27;20027;-93
2021/05/14 11:12:03;;;;;;;20.90;13.35;;;;;;;21.08;46.21;100917.72;5142339;27;20039;-95
2021/05/14 11:20:50;;;;;;;17.40;11.48;;;;;;;21.47;45.90;100916.16;5119380;27;20383;-91
2021/05/14 11:23:39;;;;;;;15.18;10.63;;;;;;;21.69;44.75;100911.22;5120699;28;20027;-95
2021/05/14 11:26:07;;;;;;;12.13;9.98;;;;;;;21.74;45.48;100914.47;5102308;28;20028;-96
2021/05/14 11:31:39;;;;;;;13.95;10.20;;;;;;;22.07;44.35;100910.47;4271740;27;25386856;-94
2021/05/14 11:34:07;;;;;;;11.52;10.07;;;;;;;22.00;44.40;100915.44;5141919;27;20139;-91
2021/05/14 11:36:33;;;;;;;13.35;10.75;;;;;;;22.04;43.87;100913.41;5143706;27;20041;-88
2021/05/14 11:38:59;;;;;;;12.20;9.60;;;;;;;22.09;43.52;100903.16;5141011;27;20031;-91
2021/05/14 11:44:19;;;;;;;13.95;8.75;;;;;;;22.33;44.05;100905.16;5053463;27;20433;-85
2021/05/14 11:46:46;;;;;;;14.52;10.32;;;;;;;22.43;42.88;100903.56;5049514;28;20563;-92
2021/05/14 11:49:12;;;;;;;12.55;10.55;;;;;;;22.43;43.26;100908.97;5052874;28;20116;-91
2021/05/14 11:51:39;;;;;;;13.13;10.35;;;;;;;22.32;43.26;100900.72;5053086;28;20041;-92
2021/05/14 11:54:21;;;;;;;12.18;9.77;;;;;;;22.47;42.79;100905.09;5051515;28;20123;-88
2021/05/14 11:56:47;;;;;;;11.68;9.45;;;;;;;22.32;43.11;100900.72;5038944;28;20746;-92
2021/05/14 11:59:27;;;;;;;13.32;9.82;;;;;;;22.45;43.28;100904.34;5046586;28;20026;-92
2021/05/14 12:01:59;;;;;;;11.00;8.80;;;;;;;22.57;42.93;100905.34;5035449;28;20037;-92
2021/05/14 12:04:25;;;;;;;13.30;9.00;;;;;;;22.75;42.77;100897.75;5038685;28;20167;-91
2021/05/14 12:06:52;;;;;;;15.02;10.40;;;;;;;22.78;42.31;100897.56;5052596;28;20048;-87
2021/05/14 12:09:41;;;;;;;14.15;10.85;;;;;;;22.88;42.28;100893.22;5045671;28;20028;-92
2021/05/14 12:12:10;;;;;;;13.77;10.40;;;;;;;22.97;42.86;100897.09;5045089;28;20524;-89
2021/05/14 12:14:36;;;;;;;26.33;17.38;;;;;;;23.13;42.51;100885.19;5043026;28;20045;-91